Terminal Aerodrome Forecast
Issued by NWS

Home | Current Version | Previous Version | Text Only | Print | Product List | Glossary On
Versions: 1 2 3 4 5 6 7 8 9 10 11 12 13 14 15 16 17 18 19 20 21 22 23 24 25 26 27 28
000
FTUS46 KSEW 281807 RRA
TAFSEA
TAF
KSEA 281807Z 2818/2924 14005KT P6SM BKN040 BKN100
     FM282200 23008KT P6SM SCT035 BKN080
     FM290400 03004KT P6SM SCT060 BKN100
     FM291400 15008KT P6SM -RA BKN035 OVC060
     FM291800 21010G22KT P6SM -SHRA BKN030 OVC050=

USA.gov is the U.S. government's official web portal to all federal, state and local government web resources and services.